sensor_id;sensor_type;location;lat;lon;timestamp;pressure;altitude;pressure_sealevel;temperature;humidity
83023;BME280;72838;51.820;4.260;2023-11-22T00:01:53;102912.44;;;6.29;96.70
83023;BME280;72838;51.820;4.260;2023-11-22T00:04:19;102815.78;;;5.70;96.40
83023;BME280;72838;51.820;4.260;2023-11-22T00:06:45;102869.47;;;5.96;96.40
83023;BME280;72838;51.820;4.260;2023-11-22T00:09:10;102875.38;;;6.01;96.13
83023;BME280;72838;51.820;4.260;2023-11-22T00:11:36;102881.91;;;5.90;95.16
83023;BME280;72838;51.820;4.260;2023-11-22T00:14:01;102912.28;;;6.12;96.40
83023;BME280;72838;51.820;4.260;2023-11-22T00:16:26;102893.84;;;5.95;96.54
83023;BME280;72838;51.820;4.260;2023-11-22T00:18:52;102852.34;;;5.67;96.44
83023;BME280;72838;51.820;4.260;2023-11-22T00:21:18;102911.06;;;5.99;96.90
83023;BME280;72838;51.820;4.260;2023-11-22T00:23:45;102921.34;;;6.02;97.76
83023;BME280;72838;51.820;4.260;2023-11-22T00:26:12;102926.75;;;5.98;97.18
83023;BME280;72838;51.820;4.260;2023-11-22T00:28:37;102930.25;;;5.97;98.29
83023;BME280;72838;51.820;4.260;2023-11-22T00:31:02;102872.63;;;5.59;97.50
83023;BME280;72838;51.820;4.260;2023-11-22T00:33:30;102919.16;;;5.92;97.27
83023;BME280;72838;51.820;4.260;2023-11-22T00:35:56;102884.16;;;5.75;97.74
83023;BME280;72838;51.820;4.260;2023-11-22T00:38:23;102906.25;;;5.89;97.07
83023;BME280;72838;51.820;4.260;2023-11-22T00:40:49;102937.75;;;6.04;97.44
83023;BME280;72838;51.820;4.260;2023-11-22T00:43:15;102931.53;;;6.08;96.80
83023;BME280;72838;51.820;4.260;2023-11-22T00:45:41;102914.75;;;5.94;96.04
83023;BME280;72838;51.820;4.260;2023-11-22T00:48:06;102910.59;;;5.88;96.58
83023;BME280;72838;51.820;4.260;2023-11-22T00:50:32;102935.75;;;5.89;97.17
83023;BME280;72838;51.820;4.260;2023-11-22T00:52:57;102933.44;;;5.80;96.49
83023;BME280;72838;51.820;4.260;2023-11-22T00:55:23;102944.72;;;5.81;97.54
83023;BME280;72838;51.820;4.260;2023-11-22T00:57:48;102957.06;;;5.75;97.47
83023;BME280;72838;51.820;4.260;2023-11-22T01:00:14;102944.25;;;5.69;97.41
83023;BME280;72838;51.820;4.260;2023-11-22T01:02:40;102924.41;;;5.44;97.09
83023;BME280;72838;51.820;4.260;2023-11-22T01:05:08;102859.22;;;5.01;97.03
83023;BME280;72838;51.820;4.260;2023-11-22T01:07:38;102949.13;;;5.55;98.01
83023;BME280;72838;51.820;4.260;2023-11-22T01:10:04;102929.16;;;5.33;98.03
83023;BME280;72838;51.820;4.260;2023-11-22T01:12:31;102963.44;;;5.44;97.85
83023;BME280;72838;51.820;4.260;2023-11-22T01:14:56;102882.94;;;4.91;97.74
83023;BME280;72838;51.820;4.260;2023-11-22T01:17:21;102962.13;;;5.32;98.21
83023;BME280;72838;51.820;4.260;2023-11-22T01:19:47;102985.22;;;5.41;98.31
83023;BME280;72838;51.820;4.260;2023-11-22T01:22:12;102981.09;;;5.36;98.44
83023;BME280;72838;51.820;4.260;2023-11-22T01:24:37;102969.28;;;5.26;98.43
83023;BME280;72838;51.820;4.260;2023-11-22T01:27:03;102918.41;;;4.94;98.15
83023;BME280;72838;51.820;4.260;2023-11-22T01:29:29;102938.91;;;5.02;97.76
83023;BME280;72838;51.820;4.260;2023-11-22T01:31:54;102897.47;;;4.72;97.73
83023;BME280;72838;51.820;4.260;2023-11-22T01:34:20;103000.28;;;5.32;98.99
83023;BME280;72838;51.820;4.260;2023-11-22T01:36:49;102990.06;;;5.27;98.38
83023;BME280;72838;51.820;4.260;2023-11-22T01:39:15;102989.38;;;5.22;98.36
83023;BME280;72838;51.820;4.260;2023-11-22T01:41:41;102944.59;;;4.88;98.61
83023;BME280;72838;51.820;4.260;2023-11-22T01:44:09;102938.75;;;4.81;98.17
83023;BME280;72838;51.820;4.260;2023-11-22T01:46:34;102964.50;;;4.89;98.19
83023;BME280;72838;51.820;4.260;2023-11-22T01:49:00;103015.16;;;5.04;98.53
83023;BME280;72838;51.820;4.260;2023-11-22T01:51:26;103016.22;;;4.98;98.69
83023;BME280;72838;51.820;4.260;2023-11-22T01:53:54;103013.50;;;5.01;98.70
83023;BME280;72838;51.820;4.260;2023-11-22T01:56:25;102925.06;;;4.50;99.00
83023;BME280;72838;51.820;4.260;2023-11-22T01:58:52;103012.66;;;5.01;99.57
83023;BME280;72838;51.820;4.260;2023-11-22T02:01:19;102980.44;;;4.78;99.34
83023;BME280;72838;51.820;4.260;2023-11-22T02:03:45;102936.22;;;4.54;99.02
83023;BME280;72838;51.820;4.260;2023-11-22T02:06:11;103009.75;;;4.83;98.65
83023;BME280;72838;51.820;4.260;2023-11-22T02:08:36;103007.22;;;4.82;99.48
83023;BME280;72838;51.820;4.260;2023-11-22T02:11:02;102994.34;;;4.77;99.32
83023;BME280;72838;51.820;4.260;2023-11-22T02:13:29;103003.91;;;4.77;99.37
83023;BME280;72838;51.820;4.260;2023-11-22T02:16:02;102943.84;;;4.32;98.71
83023;BME280;72838;51.820;4.260;2023-11-22T02:18:29;102937.75;;;4.33;99.27
83023;BME280;72838;51.820;4.260;2023-11-22T02:20:55;102980.75;;;4.69;99.19
83023;BME280;72838;51.820;4.260;2023-11-22T02:23:21;102980.75;;;4.69;99.75
83023;BME280;72838;51.820;4.260;2023-11-22T02:25:47;102979.19;;;4.64;99.09
83023;BME280;72838;51.820;4.260;2023-11-22T02:28:12;102997.97;;;4.72;99.59
83023;BME280;72838;51.820;4.260;2023-11-22T02:30:38;102978.25;;;4.66;99.45
83023;BME280;72838;51.820;4.260;2023-11-22T02:33:04;102988.25;;;4.78;99.37
83023;BME280;72838;51.820;4.260;2023-11-22T02:35:32;103006.56;;;4.75;99.41
83023;BME280;72838;51.820;4.260;2023-11-22T02:37:59;102972.16;;;4.67;99.27
83023;BME280;72838;51.820;4.260;2023-11-22T02:40:25;102945.81;;;4.52;99.40
83023;BME280;72838;51.820;4.260;2023-11-22T02:42:52;102914.28;;;4.36;99.24
83023;BME280;72838;51.820;4.260;2023-11-22T02:45:19;102977.81;;;4.80;99.20
83023;BME280;72838;51.820;4.260;2023-11-22T02:47:45;102959.09;;;4.69;99.39
83023;BME280;72838;51.820;4.260;2023-11-22T02:50:14;102871.59;;;4.17;99.34
83023;BME280;72838;51.820;4.260;2023-11-22T02:52:40;102995.63;;;4.90;99.06
83023;BME280;72838;51.820;4.260;2023-11-22T02:55:08;102974.34;;;4.79;99.09
83023;BME280;72838;51.820;4.260;2023-11-22T02:57:39;102995.63;;;4.90;99.47
83023;BME280;72838;51.820;4.260;2023-11-22T03:00:09;102977.16;;;4.73;99.08
83023;BME280;72838;51.820;4.260;2023-11-22T03:02:35;102997.28;;;4.93;99.49
83023;BME280;72838;51.820;4.260;2023-11-22T03:05:02;102992.22;;;4.90;99.44
83023;BME280;72838;51.820;4.260;2023-11-22T03:07:29;102995.81;;;4.86;98.91
83023;BME280;72838;51.820;4.260;2023-11-22T03:09:55;102987.94;;;4.87;99.99
83023;BME280;72838;51.820;4.260;2023-11-22T03:12:20;102990.97;;;4.75;99.60
83023;BME280;72838;51.820;4.260;2023-11-22T03:14:46;102913.22;;;4.42;99.33
83023;BME280;72838;51.820;4.260;2023-11-22T03:17:15;102988.97;;;4.83;99.62
83023;BME280;72838;51.820;4.260;2023-11-22T03:19:40;103001.09;;;4.83;99.19
83023;BME280;72838;51.820;4.260;2023-11-22T03:22:06;103002.00;;;4.82;99.90
83023;BME280;72838;51.820;4.260;2023-11-22T03:24:32;103001.84;;;4.86;99.84
83023;BME280;72838;51.820;4.260;2023-11-22T03:27:00;102971.38;;;4.65;99.84
83023;BME280;72838;51.820;4.260;2023-11-22T03:29:26;103017.25;;;4.92;99.86
83023;BME280;72838;51.820;4.260;2023-11-22T03:31:52;103025.66;;;5.01;99.50
83023;BME280;72838;51.820;4.260;2023-11-22T03:34:19;103037.09;;;4.95;99.21
83023;BME280;72838;51.820;4.260;2023-11-22T03:36:44;103044.91;;;4.95;99.75
83023;BME280;72838;51.820;4.260;2023-11-22T03:39:14;103063.31;;;4.89;99.60
83023;BME280;72838;51.820;4.260;2023-11-22T03:41:40;103046.03;;;4.88;99.68
83023;BME280;72838;51.820;4.260;2023-11-22T03:44:07;103063.97;;;4.96;99.78
83023;BME280;72838;51.820;4.260;2023-11-22T03:46:37;103045.41;;;4.80;99.65
83023;BME280;72838;51.820;4.260;2023-11-22T03:49:06;103060.97;;;4.81;99.69
83023;BME280;72838;51.820;4.260;2023-11-22T03:51:35;103031.16;;;4.65;100.00
83023;BME280;72838;51.820;4.260;2023-11-22T03:54:01;103074.88;;;5.07;99.69
83023;BME280;72838;51.820;4.260;2023-11-22T03:56:27;103071.47;;;5.05;99.33
83023;BME280;72838;51.820;4.260;2023-11-22T03:58:53;103047.91;;;4.83;99.88
83023;BME280;72838;51.820;4.260;2023-11-22T04:01:18;103056.78;;;4.76;99.77
83023;BME280;72838;51.820;4.260;2023-11-22T04:03:48;103082.91;;;4.99;99.59
83023;BME280;72838;51.820;4.260;2023-11-22T04:06:17;103077.25;;;4.86;99.73
83023;BME280;72838;51.820;4.260;2023-11-22T04:08:44;103045.28;;;4.57;99.45
83023;BME280;72838;51.820;4.260;2023-11-22T04:11:11;103086.84;;;4.84;99.52
83023;BME280;72838;51.820;4.260;2023-11-22T04:13:37;103080.91;;;4.81;99.50
83023;BME280;72838;51.820;4.260;2023-11-22T04:16:03;103046.91;;;4.59;99.70
83023;BME280;72838;51.820;4.260;2023-11-22T04:18:28;103039.28;;;4.53;99.81
83023;BME280;72838;51.820;4.260;2023-11-22T04:20:53;103038.69;;;4.45;100.00
83023;BME280;72838;51.820;4.260;2023-11-22T04:23:20;103076.72;;;4.48;99.99
83023;BME280;72838;51.820;4.260;2023-11-22T04:25:46;103080.66;;;4.61;100.00
83023;BME280;72838;51.820;4.260;2023-11-22T04:28:14;103085.75;;;4.64;100.00
83023;BME280;72838;51.820;4.260;2023-11-22T04:30:40;103049.19;;;4.42;100.00
83023;BME280;72838;51.820;4.260;2023-11-22T04:33:05;103068.06;;;4.49;99.91
83023;BME280;72838;51.820;4.260;2023-11-22T04:35:31;103089.47;;;4.55;100.00
83023;BME280;72838;51.820;4.260;2023-11-22T04:38:01;103088.72;;;4.52;100.00
83023;BME280;72838;51.820;4.260;2023-11-22T04:40:26;103092.25;;;4.49;100.00
83023;BME280;72838;51.820;4.260;2023-11-22T04:42:52;103059.47;;;4.18;100.00
83023;BME280;72838;51.820;4.260;2023-11-22T04:45:19;103095.16;;;4.40;100.00
83023;BME280;72838;51.820;4.260;2023-11-22T04:47:45;103102.63;;;4.51;100.00
83023;BME280;72838;51.820;4.260;2023-11-22T04:50:10;103076.84;;;4.43;99.96
83023;BME280;72838;51.820;4.260;2023-11-22T04:52:35;103046.50;;;4.16;99.73
83023;BME280;72838;51.820;4.260;2023-11-22T04:55:01;103055.44;;;4.35;100.00
83023;BME280;72838;51.820;4.260;2023-11-22T04:57:26;103061.41;;;4.39;100.00
83023;BME280;72838;51.820;4.260;2023-11-22T04:59:58;103052.00;;;4.35;100.00
83023;BME280;72838;51.820;4.260;2023-11-22T05:02:28;103067.06;;;4.53;100.00
83023;BME280;72838;51.820;4.260;2023-11-22T05:04:53;103086.66;;;4.63;100.00
83023;BME280;72838;51.820;4.260;2023-11-22T05:07:19;103068.75;;;4.54;100.00
83023;BME280;72838;51.820;4.260;2023-11-22T05:09:44;103085.06;;;4.59;100.00
83023;BME280;72838;51.820;4.260;2023-11-22T05:12:10;103099.56;;;4.66;100.00
83023;BME280;72838;51.820;4.260;2023-11-22T05:14:36;103066.47;;;4.43;99.70
83023;BME280;72838;51.820;4.260;2023-11-22T05:17:02;103091.25;;;4.55;99.96
83023;BME280;72838;51.820;4.260;2023-11-22T05:19:27;103069.78;;;4.48;100.00
83023;BME280;72838;51.820;4.260;2023-11-22T05:21:53;103084.47;;;4.49;100.00
83023;BME280;72838;51.820;4.260;2023-11-22T05:24:18;103063.97;;;4.40;100.00
83023;BME280;72838;51.820;4.260;2023-11-22T05:26:44;103022.19;;;4.19;100.00
83023;BME280;72838;51.820;4.260;2023-11-22T05:29:10;103076.66;;;4.51;100.00
83023;BME280;72838;51.820;4.260;2023-11-22T05:31:35;103043.25;;;4.37;100.00
83023;BME280;72838;51.820;4.260;2023-11-22T05:34:03;103079.53;;;4.69;100.00
83023;BME280;72838;51.820;4.260;2023-11-22T05:36:29;102978.16;;;4.14;100.00
83023;BME280;72838;51.820;4.260;2023-11-22T05:38:55;103067.53;;;4.65;100.00
83023;BME280;72838;51.820;4.260;2023-11-22T05:41:20;103057.94;;;4.67;100.00
83023;BME280;72838;51.820;4.260;2023-11-22T05:43:46;103051.69;;;4.73;100.00
83023;BME280;72838;51.820;4.260;2023-11-22T05:46:11;103056.13;;;4.42;100.00
83023;BME280;72838;51.820;4.260;2023-11-22T05:48:38;103053.81;;;4.60;99.60
83023;BME280;72838;51.820;4.260;2023-11-22T05:51:06;103079.50;;;4.71;99.73
83023;BME280;72838;51.820;4.260;2023-11-22T05:53:33;103084.69;;;4.71;99.95
83023;BME280;72838;51.820;4.260;2023-11-22T05:55:58;103088.03;;;4.74;99.80
83023;BME280;72838;51.820;4.260;2023-11-22T05:58:24;103075.84;;;4.76;99.46
83023;BME280;72838;51.820;4.260;2023-11-22T06:00:50;103083.69;;;4.75;99.29
83023;BME280;72838;51.820;4.260;2023-11-22T06:03:15;103079.56;;;4.68;99.51
83023;BME280;72838;51.820;4.260;2023-11-22T06:05:40;103108.78;;;4.76;100.00
83023;BME280;72838;51.820;4.260;2023-11-22T06:08:06;103065.47;;;4.47;99.09
83023;BME280;72838;51.820;4.260;2023-11-22T06:10:32;103111.22;;;4.82;99.31
83023;BME280;72838;51.820;4.260;2023-11-22T06:12:57;103135.44;;;4.82;99.79
83023;BME280;72838;51.820;4.260;2023-11-22T06:15:23;103076.72;;;4.48;99.45
83023;BME280;72838;51.820;4.260;2023-11-22T06:17:49;103150.38;;;4.76;99.21
83023;BME280;72838;51.820;4.260;2023-11-22T06:20:15;103113.03;;;4.51;99.59
83023;BME280;72838;51.820;4.260;2023-11-22T06:22:41;103165.16;;;4.75;100.00
83023;BME280;72838;51.820;4.260;2023-11-22T06:25:13;103129.13;;;4.63;99.63
83023;BME280;72838;51.820;4.260;2023-11-22T06:27:38;103105.38;;;4.46;99.83
83023;BME280;72838;51.820;4.260;2023-11-22T06:30:04;103145.47;;;4.67;100.00
83023;BME280;72838;51.820;4.260;2023-11-22T06:32:31;103139.28;;;4.71;100.00
83023;BME280;72838;51.820;4.260;2023-11-22T06:34:57;103126.59;;;4.60;100.00
83023;BME280;72838;51.820;4.260;2023-11-22T06:37:24;103128.34;;;4.60;99.86
83023;BME280;72838;51.820;4.260;2023-11-22T06:39:49;103108.53;;;4.56;100.00
83023;BME280;72838;51.820;4.260;2023-11-22T06:42:16;103122.94;;;4.67;99.89
83023;BME280;72838;51.820;4.260;2023-11-22T06:44:41;103122.69;;;4.75;99.98
83023;BME280;72838;51.820;4.260;2023-11-22T06:47:07;103060.38;;;4.44;99.84
83023;BME280;72838;51.820;4.260;2023-11-22T06:49:32;103112.47;;;4.69;99.63
83023;BME280;72838;51.820;4.260;2023-11-22T06:51:58;103045.19;;;4.31;99.75
83023;BME280;72838;51.820;4.260;2023-11-22T06:54:23;103103.81;;;4.68;100.00
83023;BME280;72838;51.820;4.260;2023-11-22T06:56:49;103098.53;;;4.71;99.53
83023;BME280;72838;51.820;4.260;2023-11-22T06:59:16;103102.75;;;4.75;100.00
83023;BME280;72838;51.820;4.260;2023-11-22T07:01:41;103002.38;;;4.15;99.51
83023;BME280;72838;51.820;4.260;2023-11-22T07:04:07;103034.72;;;4.34;99.29
83023;BME280;72838;51.820;4.260;2023-11-22T07:06:32;103066.19;;;4.52;99.90
83023;BME280;72838;51.820;4.260;2023-11-22T07:08:58;103108.03;;;4.72;99.45
83023;BME280;72838;51.820;4.260;2023-11-22T07:11:24;103105.63;;;4.66;99.84
83023;BME280;72838;51.820;4.260;2023-11-22T07:13:51;103119.38;;;4.70;99.73
83023;BME280;72838;51.820;4.260;2023-11-22T07:16:17;103034.53;;;4.10;99.77
83023;BME280;72838;51.820;4.260;2023-11-22T07:18:43;103160.03;;;4.72;100.00
83023;BME280;72838;51.820;4.260;2023-11-22T07:21:09;103130.69;;;4.69;99.96
83023;BME280;72838;51.820;4.260;2023-11-22T07:23:35;103082.53;;;4.27;99.99
83023;BME280;72838;51.820;4.260;2023-11-22T07:26:00;103130.91;;;4.61;100.00
83023;BME280;72838;51.820;4.260;2023-11-22T07:28:25;103123.13;;;4.60;100.00
83023;BME280;72838;51.820;4.260;2023-11-22T07:30:51;103146.03;;;4.76;99.80
83023;BME280;72838;51.820;4.260;2023-11-22T07:33:17;103061.59;;;4.33;100.00
83023;BME280;72838;51.820;4.260;2023-11-22T07:35:54;103114.53;;;4.58;100.00
83023;BME280;72838;51.820;4.260;2023-11-22T07:38:19;103132.97;;;4.50;100.00
83023;BME280;72838;51.820;4.260;2023-11-22T07:40:46;103090.22;;;4.00;99.80
83023;BME280;72838;51.820;4.260;2023-11-22T07:43:11;103165.22;;;4.72;100.00
83023;BME280;72838;51.820;4.260;2023-11-22T07:45:36;103135.38;;;4.56;100.00
83023;BME280;72838;51.820;4.260;2023-11-22T07:48:04;103151.91;;;4.54;99.90
83023;BME280;72838;51.820;4.260;2023-11-22T07:50:29;103145.09;;;4.50;100.00
83023;BME280;72838;51.820;4.260;2023-11-22T07:52:55;103124.22;;;4.24;99.71
83023;BME280;72838;51.820;4.260;2023-11-22T07:55:21;103189.03;;;4.57;100.00
83023;BME280;72838;51.820;4.260;2023-11-22T07:57:49;103152.44;;;4.36;99.81
83023;BME280;72838;51.820;4.260;2023-11-22T08:00:16;103154.13;;;4.06;100.00
83023;BME280;72838;51.820;4.260;2023-11-22T08:02:47;103124.41;;;4.16;100.00
83023;BME280;72838;51.820;4.260;2023-11-22T08:05:12;103170.44;;;4.42;100.00
83023;BME280;72838;51.820;4.260;2023-11-22T08:07:41;103172.31;;;4.37;100.00
83023;BME280;72838;51.820;4.260;2023-11-22T08:10:10;103209.84;;;4.57;100.00
83023;BME280;72838;51.820;4.260;2023-11-22T08:12:43;103191.75;;;4.54;100.00
83023;BME280;72838;51.820;4.260;2023-11-22T08:15:14;103215.53;;;4.71;100.00
83023;BME280;72838;51.820;4.260;2023-11-22T08:17:42;103204.75;;;4.83;100.00
83023;BME280;72838;51.820;4.260;2023-11-22T08:20:13;103231.41;;;4.91;100.00
83023;BME280;72838;51.820;4.260;2023-11-22T08:22:43;103181.22;;;4.88;99.53
83023;BME280;72838;51.820;4.260;2023-11-22T08:25:10;103153.03;;;4.74;98.93
83023;BME280;72838;51.820;4.260;2023-11-22T08:27:40;103206.75;;;5.03;99.04
83023;BME280;72838;51.820;4.260;2023-11-22T08:30:09;103210.84;;;4.82;99.88
83023;BME280;72838;51.820;4.260;2023-11-22T08:32:39;103179.63;;;4.84;99.69
83023;BME280;72838;51.820;4.260;2023-11-22T08:35:06;103111.56;;;4.42;99.22
83023;BME280;72838;51.820;4.260;2023-11-22T08:37:33;103239.59;;;5.07;100.00
83023;BME280;72838;51.820;4.260;2023-11-22T08:40:00;103164.34;;;4.73;99.56
83023;BME280;72838;51.820;4.260;2023-11-22T08:42:26;103235.91;;;5.14;99.98
83023;BME280;72838;51.820;4.260;2023-11-22T08:44:51;103227.06;;;5.20;99.49
83023;BME280;72838;51.820;4.260;2023-11-22T08:47:16;103220.97;;;5.21;99.85
83023;BME280;72838;51.820;4.260;2023-11-22T08:49:45;103211.91;;;5.34;98.69
83023;BME280;72838;51.820;4.260;2023-11-22T08:52:13;103172.34;;;5.23;97.61
83023;BME280;72838;51.820;4.260;2023-11-22T08:54:38;103228.81;;;5.47;97.58
83023;BME280;72838;51.820;4.260;2023-11-22T08:57:04;103191.50;;;5.48;97.40
83023;BME280;72838;51.820;4.260;2023-11-22T08:59:31;103195.38;;;5.61;97.07
83023;BME280;72838;51.820;4.260;2023-11-22T09:01:58;103176.81;;;5.45;96.52
83023;BME280;72838;51.820;4.260;2023-11-22T09:04:23;103203.59;;;5.49;96.58
83023;BME280;72838;51.820;4.260;2023-11-22T09:06:51;103192.50;;;5.42;96.74
83023;BME280;72838;51.820;4.260;2023-11-22T09:09:16;103204.97;;;5.60;95.61
83023;BME280;72838;51.820;4.260;2023-11-22T09:11:48;103181.53;;;5.60;95.72
83023;BME280;72838;51.820;4.260;2023-11-22T09:14:16;103197.69;;;5.70;95.83
83023;BME280;72838;51.820;4.260;2023-11-22T09:16:41;103206.81;;;5.83;96.46
83023;BME280;72838;51.820;4.260;2023-11-22T09:19:07;103212.00;;;5.85;95.77
83023;BME280;72838;51.820;4.260;2023-11-22T09:21:33;103193.19;;;5.75;96.90
83023;BME280;72838;51.820;4.260;2023-11-22T09:23:58;103216.09;;;5.92;96.68
83023;BME280;72838;51.820;4.260;2023-11-22T09:26:24;103209.91;;;5.94;96.72
83023;BME280;72838;51.820;4.260;2023-11-22T09:28:49;103210.84;;;5.93;96.16
83023;BME280;72838;51.820;4.260;2023-11-22T09:31:17;103201.63;;;5.82;94.96
83023;BME280;72838;51.820;4.260;2023-11-22T09:33:45;103210.84;;;5.93;95.67
83023;BME280;72838;51.820;4.260;2023-11-22T09:36:12;103216.94;;;5.92;95.93
83023;BME280;72838;51.820;4.260;2023-11-22T09:38:38;103186.19;;;5.77;95.95
83023;BME280;72838;51.820;4.260;2023-11-22T09:41:04;103139.06;;;5.32;96.07
83023;BME280;72838;51.820;4.260;2023-11-22T09:43:30;103169.13;;;5.67;95.64
83023;BME280;72838;51.820;4.260;2023-11-22T09:45:58;103206.31;;;5.98;95.40
83023;BME280;72838;51.820;4.260;2023-11-22T09:48:26;103266.13;;;6.01;95.16
83023;BME280;72838;51.820;4.260;2023-11-22T09:56:10;103148.13;;;5.73;94.89
83023;BME280;72838;51.820;4.260;2023-11-22T09:58:40;103215.78;;;6.01;95.43
83023;BME280;72838;51.820;4.260;2023-11-22T10:01:10;103192.75;;;5.89;95.83
83023;BME280;72838;51.820;4.260;2023-11-22T10:03:42;103208.56;;;5.83;96.43
83023;BME280;72838;51.820;4.260;2023-11-22T10:06:08;103152.91;;;5.59;96.47
83023;BME280;72838;51.820;4.260;2023-11-22T10:08:33;103155.03;;;5.74;96.48
83023;BME280;72838;51.820;4.260;2023-11-22T10:10:59;103146.13;;;5.80;96.20
83023;BME280;72838;51.820;4.260;2023-11-22T10:13:25;103113.94;;;5.57;96.19
83023;BME280;72838;51.820;4.260;2023-11-22T10:15:52;103193.28;;;6.23;95.86
83023;BME280;72838;51.820;4.260;2023-11-22T10:18:20;103189.28;;;6.37;95.98
83023;BME280;72838;51.820;4.260;2023-11-22T10:20:48;103181.13;;;6.46;95.07
83023;BME280;72838;51.820;4.260;2023-11-22T10:23:18;103180.50;;;6.63;94.83
83023;BME280;72838;51.820;4.260;2023-11-22T10:25:48;103171.66;;;6.90;94.62
83023;BME280;72838;51.820;4.260;2023-11-22T10:28:17;103101.16;;;6.70;92.53
83023;BME280;72838;51.820;4.260;2023-11-22T10:30:45;103098.06;;;6.82;92.73
83023;BME280;72838;51.820;4.260;2023-11-22T10:33:11;103142.59;;;7.21;92.05
83023;BME280;72838;51.820;4.260;2023-11-22T10:35:43;103100.50;;;6.87;91.25
83023;BME280;72838;51.820;4.260;2023-11-22T10:38:13;103127.50;;;7.07;91.02
83023;BME280;72838;51.820;4.260;2023-11-22T10:40:39;103107.50;;;7.06;91.07
83023;BME280;72838;51.820;4.260;2023-11-22T10:43:06;103124.22;;;7.24;91.24
83023;BME280;72838;51.820;4.260;2023-11-22T10:45:33;103106.44;;;6.90;91.29
83023;BME280;72838;51.820;4.260;2023-11-22T10:48:08;102888.38;;;5.56;91.18
83023;BME280;72838;51.820;4.260;2023-11-22T10:50:36;103011.31;;;6.56;90.64
83023;BME280;72838;51.820;4.260;2023-11-22T10:53:08;103143.06;;;7.30;90.95
83023;BME280;72838;51.820;4.260;2023-11-22T10:55:38;103128.50;;;7.25;91.54
83023;BME280;72838;51.820;4.260;2023-11-22T10:58:08;103062.22;;;6.42;90.21
83023;BME280;72838;51.820;4.260;2023-11-22T11:00:35;103100.03;;;7.19;91.59
83023;BME280;72838;51.820;4.260;2023-11-22T11:03:12;103108.63;;;7.43;90.76
83023;BME280;72838;51.820;4.260;2023-11-22T11:05:42;103107.59;;;7.47;91.09
83023;BME280;72838;51.820;4.260;2023-11-22T11:08:14;103054.19;;;7.33;90.78
83023;BME280;72838;51.820;4.260;2023-11-22T11:10:43;102999.44;;;6.70;91.32
83023;BME280;72838;51.820;4.260;2023-11-22T11:13:09;103035.38;;;7.25;90.88
83023;BME280;72838;51.820;4.260;2023-11-22T11:15:36;103143.19;;;7.69;90.45
83023;BME280;72838;51.820;4.260;2023-11-22T11:18:04;103072.09;;;7.43;90.10
83023;BME280;72838;51.820;4.260;2023-11-22T11:20:50;103114.56;;;7.66;90.27
83023;BME280;72838;51.820;4.260;2023-11-22T11:23:20;103087.53;;;7.47;91.47
83023;BME280;72838;51.820;4.260;2023-11-22T11:25:53;103072.56;;;7.30;91.84
83023;BME280;72838;51.820;4.260;2023-11-22T11:28:20;103085.97;;;7.43;92.00
83023;BME280;72838;51.820;4.260;2023-11-22T11:30:49;103107.00;;;7.60;91.77
83023;BME280;72838;51.820;4.260;2023-11-22T11:33:19;103106.66;;;7.48;90.97
83023;BME280;72838;51.820;4.260;2023-11-22T11:35:51;103075.84;;;7.35;91.21
83023;BME280;72838;51.820;4.260;2023-11-22T11:38:20;103103.50;;;7.61;91.22
83023;BME280;72838;51.820;4.260;2023-11-22T11:40:48;103104.59;;;7.76;91.00
83023;BME280;72838;51.820;4.260;2023-11-22T11:43:14;103096.22;;;7.68;90.23
83023;BME280;72838;51.820;4.260;2023-11-22T11:45:42;103091.53;;;7.56;91.04
83023;BME280;72838;51.820;4.260;2023-11-22T11:48:13;103123.00;;;7.73;91.10
83023;BME280;72838;51.820;4.260;2023-11-22T11:50:39;103032.25;;;7.17;91.43
83023;BME280;72838;51.820;4.260;2023-11-22T11:53:04;103064.09;;;7.46;90.08
83023;BME280;72838;51.820;4.260;2023-11-22T11:55:30;103108.94;;;7.95;90.49
83023;BME280;72838;51.820;4.260;2023-11-22T11:57:56;103104.03;;;8.08;89.21
83023;BME280;72838;51.820;4.260;2023-11-22T12:00:25;103086.69;;;8.26;89.29
83023;BME280;72838;51.820;4.260;2023-11-22T12:02:50;103046.56;;;8.27;88.37
83023;BME280;72838;51.820;4.260;2023-11-22T12:05:19;102983.88;;;8.06;88.82
83023;BME280;72838;51.820;4.260;2023-11-22T12:07:45;103050.50;;;8.54;87.58
83023;BME280;72838;51.820;4.260;2023-11-22T12:10:10;102994.63;;;7.80;88.25
83023;BME280;72838;51.820;4.260;2023-11-22T12:12:36;102998.34;;;7.95;87.67
83023;BME280;72838;51.820;4.260;2023-11-22T12:15:02;102957.44;;;7.75;87.92
83023;BME280;72838;51.820;4.260;2023-11-22T12:17:30;102967.81;;;7.77;86.13
83023;BME280;72838;51.820;4.260;2023-11-22T12:20:10;102946.69;;;7.63;86.62
83023;BME280;72838;51.820;4.260;2023-11-22T12:22:36;103020.88;;;7.97;85.93
83023;BME280;72838;51.820;4.260;2023-11-22T12:25:02;102933.44;;;7.67;86.53
83023;BME280;72838;51.820;4.260;2023-11-22T12:27:27;103031.91;;;8.04;86.87
83023;BME280;72838;51.820;4.260;2023-11-22T12:29:53;103028.44;;;8.22;87.46
83023;BME280;72838;51.820;4.260;2023-11-22T12:32:26;103032.09;;;8.18;87.95
83023;BME280;72838;51.820;4.260;2023-11-22T12:34:51;102888.97;;;7.11;87.79
83023;BME280;72838;51.820;4.260;2023-11-22T12:37:24;102923.78;;;7.49;88.07
83023;BME280;72838;51.820;4.260;2023-11-22T12:39:50;103016.13;;;8.24;88.07
83023;BME280;72838;51.820;4.260;2023-11-22T12:42:18;103012.13;;;8.17;87.27
83023;BME280;72838;51.820;4.260;2023-11-22T12:44:50;103003.06;;;8.24;87.00
83023;BME280;72838;51.820;4.260;2023-11-22T12:47:37;102987.59;;;8.01;87.06
83023;BME280;72838;51.820;4.260;2023-11-22T12:50:03;102964.06;;;8.01;87.13
83023;BME280;72838;51.820;4.260;2023-11-22T12:52:33;102937.41;;;7.94;85.69
83023;BME280;72838;51.820;4.260;2023-11-22T12:54:59;102979.53;;;8.24;86.95
83023;BME280;72838;51.820;4.260;2023-11-22T12:57:24;102985.06;;;8.18;86.47
83023;BME280;72838;51.820;4.260;2023-11-22T12:59:50;102896.50;;;7.56;86.77
83023;BME280;72838;51.820;4.260;2023-11-22T13:02:16;102973.75;;;7.80;87.09